sensor_id;sensor_type;location;lat;lon;timestamp;P1;durP1;ratioP1;P2;durP2;ratioP2
71570;SDS011;59407;42.682;23.322;2023-04-03T00:01:58;6.95;;;3.83;;
71570;SDS011;59407;42.682;23.322;2023-04-03T00:05:25;8.98;;;3.80;;
71570;SDS011;59407;42.682;23.322;2023-04-03T00:08:27;7.90;;;4.50;;
71570;SDS011;59407;42.682;23.322;2023-04-03T00:11:13;9.25;;;6.07;;
71570;SDS011;59407;42.682;23.322;2023-04-03T00:14:10;9.70;;;6.80;;
71570;SDS011;59407;42.682;23.322;2023-04-03T00:17:05;14.60;;;6.38;;
71570;SDS011;59407;42.682;23.322;2023-04-03T00:19:32;9.25;;;5.30;;
71570;SDS011;59407;42.682;23.322;2023-04-03T00:22:02;8.10;;;4.95;;
71570;SDS011;59407;42.682;23.322;2023-04-03T00:24:29;10.40;;;6.05;;
71570;SDS011;59407;42.682;23.322;2023-04-03T00:26:55;11.70;;;5.87;;
71570;SDS011;59407;42.682;23.322;2023-04-03T00:29:25;10.65;;;5.85;;
71570;SDS011;59407;42.682;23.322;2023-04-03T00:31:52;11.25;;;5.45;;
71570;SDS011;59407;42.682;23.322;2023-04-03T00:34:50;12.43;;;5.95;;
71570;SDS011;59407;42.682;23.322;2023-04-03T00:37:26;11.38;;;5.82;;
71570;SDS011;59407;42.682;23.322;2023-04-03T00:40:01;9.17;;;5.50;;
71570;SDS011;59407;42.682;23.322;2023-04-03T00:42:29;8.73;;;5.30;;
71570;SDS011;59407;42.682;23.322;2023-04-03T00:47:25;11.82;;;5.93;;
71570;SDS011;59407;42.682;23.322;2023-04-03T00:49:55;9.30;;;6.38;;
71570;SDS011;59407;42.682;23.322;2023-04-03T00:52:23;13.27;;;6.50;;
71570;SDS011;59407;42.682;23.322;2023-04-03T00:54:54;9.50;;;5.47;;
71570;SDS011;59407;42.682;23.322;2023-04-03T00:57:26;11.07;;;5.35;;
71570;SDS011;59407;42.682;23.322;2023-04-03T00:59:55;9.98;;;4.85;;
71570;SDS011;59407;42.682;23.322;2023-04-03T01:02:25;11.57;;;5.80;;
71570;SDS011;59407;42.682;23.322;2023-04-03T01:04:55;11.93;;;7.10;;
71570;SDS011;59407;42.682;23.322;2023-04-03T01:07:42;12.90;;;5.93;;
71570;SDS011;59407;42.682;23.322;2023-04-03T01:10:15;10.13;;;5.63;;
71570;SDS011;59407;42.682;23.322;2023-04-03T01:13:00;9.13;;;4.53;;
71570;SDS011;59407;42.682;23.322;2023-04-03T01:15:43;9.10;;;4.85;;
71570;SDS011;59407;42.682;23.322;2023-04-03T01:18:09;10.03;;;5.57;;
71570;SDS011;59407;42.682;23.322;2023-04-03T01:26:00;9.57;;;5.43;;
71570;SDS011;59407;42.682;23.322;2023-04-03T01:28:31;9.70;;;5.72;;
71570;SDS011;59407;42.682;23.322;2023-04-03T01:37:31;6.93;;;3.58;;
71570;SDS011;59407;42.682;23.322;2023-04-03T01:40:10;7.17;;;4.27;;
71570;SDS011;59407;42.682;23.322;2023-04-03T01:43:08;4.60;;;2.95;;
71570;SDS011;59407;42.682;23.322;2023-04-03T01:45:43;6.72;;;3.63;;
71570;SDS011;59407;42.682;23.322;2023-04-03T01:48:38;6.28;;;3.30;;
71570;SDS011;59407;42.682;23.322;2023-04-03T01:51:12;7.35;;;3.85;;
71570;SDS011;59407;42.682;23.322;2023-04-03T01:53:42;7.47;;;4.27;;
71570;SDS011;59407;42.682;23.322;2023-04-03T01:59:17;6.57;;;3.90;;
71570;SDS011;59407;42.682;23.322;2023-04-03T02:04:42;5.97;;;4.13;;
71570;SDS011;59407;42.682;23.322;2023-04-03T02:10:40;6.95;;;3.60;;
71570;SDS011;59407;42.682;23.322;2023-04-03T02:13:08;6.60;;;3.88;;
71570;SDS011;59407;42.682;23.322;2023-04-03T02:15:37;6.78;;;3.40;;
71570;SDS011;59407;42.682;23.322;2023-04-03T02:18:10;4.43;;;3.22;;
71570;SDS011;59407;42.682;23.322;2023-04-03T02:20:42;6.47;;;3.90;;
71570;SDS011;59407;42.682;23.322;2023-04-03T02:23:09;6.90;;;4.30;;
71570;SDS011;59407;42.682;23.322;2023-04-03T02:25:35;9.07;;;5.05;;
71570;SDS011;59407;42.682;23.322;2023-04-03T02:28:00;6.87;;;4.60;;
71570;SDS011;59407;42.682;23.322;2023-04-03T02:30:26;8.47;;;5.27;;
71570;SDS011;59407;42.682;23.322;2023-04-03T02:32:52;8.35;;;4.78;;
71570;SDS011;59407;42.682;23.322;2023-04-03T02:35:17;7.93;;;4.80;;
71570;SDS011;59407;42.682;23.322;2023-04-03T02:37:45;6.57;;;4.40;;
71570;SDS011;59407;42.682;23.322;2023-04-03T02:40:11;11.20;;;5.10;;
71570;SDS011;59407;42.682;23.322;2023-04-03T02:42:38;7.70;;;4.40;;
71570;SDS011;59407;42.682;23.322;2023-04-03T02:45:05;9.65;;;4.75;;
71570;SDS011;59407;42.682;23.322;2023-04-03T02:47:31;6.85;;;4.88;;
71570;SDS011;59407;42.682;23.322;2023-04-03T02:49:56;6.43;;;4.60;;
71570;SDS011;59407;42.682;23.322;2023-04-03T02:52:22;9.00;;;5.32;;
71570;SDS011;59407;42.682;23.322;2023-04-03T02:54:49;8.97;;;4.70;;
71570;SDS011;59407;42.682;23.322;2023-04-03T02:57:15;8.25;;;4.88;;
71570;SDS011;59407;42.682;23.322;2023-04-03T03:03:17;9.23;;;5.30;;
71570;SDS011;59407;42.682;23.322;2023-04-03T03:06:11;8.50;;;4.87;;
71570;SDS011;59407;42.682;23.322;2023-04-03T03:09:23;9.05;;;5.15;;
71570;SDS011;59407;42.682;23.322;2023-04-03T03:17:15;10.43;;;6.03;;
71570;SDS011;59407;42.682;23.322;2023-04-03T03:19:51;10.63;;;5.10;;
71570;SDS011;59407;42.682;23.322;2023-04-03T03:22:20;7.75;;;5.25;;
71570;SDS011;59407;42.682;23.322;2023-04-03T03:24:45;10.52;;;6.25;;
71570;SDS011;59407;42.682;23.322;2023-04-03T03:27:14;8.37;;;5.83;;
71570;SDS011;59407;42.682;23.322;2023-04-03T03:29:49;9.65;;;6.00;;
71570;SDS011;59407;42.682;23.322;2023-04-03T03:44:21;11.52;;;6.85;;
71570;SDS011;59407;42.682;23.322;2023-04-03T03:46:47;10.48;;;6.80;;
71570;SDS011;59407;42.682;23.322;2023-04-03T03:49:16;9.20;;;6.00;;
71570;SDS011;59407;42.682;23.322;2023-04-03T03:51:46;13.73;;;7.40;;
71570;SDS011;59407;42.682;23.322;2023-04-03T03:54:13;10.03;;;6.63;;
71570;SDS011;59407;42.682;23.322;2023-04-03T03:56:43;11.32;;;7.38;;
71570;SDS011;59407;42.682;23.322;2023-04-03T03:59:13;12.63;;;8.02;;
71570;SDS011;59407;42.682;23.322;2023-04-03T04:01:41;14.10;;;7.95;;
71570;SDS011;59407;42.682;23.322;2023-04-03T04:04:07;13.48;;;8.10;;
71570;SDS011;59407;42.682;23.322;2023-04-03T04:06:33;13.20;;;8.23;;
71570;SDS011;59407;42.682;23.322;2023-04-03T04:09:11;14.00;;;7.80;;
71570;SDS011;59407;42.682;23.322;2023-04-03T04:11:36;13.60;;;7.53;;
71570;SDS011;59407;42.682;23.322;2023-04-03T04:14:04;14.77;;;8.50;;
71570;SDS011;59407;42.682;23.322;2023-04-03T04:16:30;13.00;;;7.68;;
71570;SDS011;59407;42.682;23.322;2023-04-03T04:18:56;13.30;;;8.33;;
71570;SDS011;59407;42.682;23.322;2023-04-03T04:21:25;13.38;;;7.47;;
71570;SDS011;59407;42.682;23.322;2023-04-03T04:23:51;13.90;;;8.05;;
71570;SDS011;59407;42.682;23.322;2023-04-03T04:26:20;15.10;;;9.50;;
71570;SDS011;59407;42.682;23.322;2023-04-03T04:28:46;15.65;;;8.27;;
71570;SDS011;59407;42.682;23.322;2023-04-03T04:31:12;16.00;;;9.20;;
71570;SDS011;59407;42.682;23.322;2023-04-03T04:33:58;18.13;;;9.00;;
71570;SDS011;59407;42.682;23.322;2023-04-03T04:37:01;16.00;;;8.63;;
71570;SDS011;59407;42.682;23.322;2023-04-03T04:39:27;16.27;;;10.07;;
71570;SDS011;59407;42.682;23.322;2023-04-03T04:41:53;17.38;;;9.98;;
71570;SDS011;59407;42.682;23.322;2023-04-03T04:44:19;23.92;;;12.30;;
71570;SDS011;59407;42.682;23.322;2023-04-03T04:46:47;18.98;;;10.07;;
71570;SDS011;59407;42.682;23.322;2023-04-03T04:49:12;17.50;;;8.90;;
71570;SDS011;59407;42.682;23.322;2023-04-03T04:51:40;19.15;;;8.93;;
71570;SDS011;59407;42.682;23.322;2023-04-03T04:54:07;17.60;;;9.18;;
71570;SDS011;59407;42.682;23.322;2023-04-03T04:59:06;15.50;;;9.05;;
71570;SDS011;59407;42.682;23.322;2023-04-03T05:02:01;13.85;;;7.32;;
71570;SDS011;59407;42.682;23.322;2023-04-03T05:04:43;13.88;;;8.20;;
71570;SDS011;59407;42.682;23.322;2023-04-03T05:07:09;25.00;;;9.47;;
71570;SDS011;59407;42.682;23.322;2023-04-03T05:09:37;16.40;;;9.35;;
71570;SDS011;59407;42.682;23.322;2023-04-03T05:12:16;14.27;;;8.40;;
71570;SDS011;59407;42.682;23.322;2023-04-03T05:14:42;12.48;;;8.05;;
71570;SDS011;59407;42.682;23.322;2023-04-03T05:17:08;17.05;;;9.70;;
71570;SDS011;59407;42.682;23.322;2023-04-03T05:19:34;11.80;;;8.63;;
71570;SDS011;59407;42.682;23.322;2023-04-03T05:22:01;17.55;;;9.15;;
71570;SDS011;59407;42.682;23.322;2023-04-03T05:24:28;13.05;;;9.27;;
71570;SDS011;59407;42.682;23.322;2023-04-03T05:26:54;12.75;;;9.30;;
71570;SDS011;59407;42.682;23.322;2023-04-03T05:29:19;15.03;;;8.70;;
71570;SDS011;59407;42.682;23.322;2023-04-03T05:31:48;15.10;;;8.80;;
71570;SDS011;59407;42.682;23.322;2023-04-03T05:34:15;15.18;;;8.75;;
71570;SDS011;59407;42.682;23.322;2023-04-03T05:36:41;14.57;;;8.73;;
71570;SDS011;59407;42.682;23.322;2023-04-03T05:39:09;22.83;;;9.00;;
71570;SDS011;59407;42.682;23.322;2023-04-03T05:41:35;14.80;;;9.53;;
71570;SDS011;59407;42.682;23.322;2023-04-03T05:44:00;15.80;;;9.32;;
71570;SDS011;59407;42.682;23.322;2023-04-03T05:46:27;18.97;;;10.17;;
71570;SDS011;59407;42.682;23.322;2023-04-03T05:48:54;21.02;;;10.82;;
71570;SDS011;59407;42.682;23.322;2023-04-03T05:51:24;22.70;;;11.20;;
71570;SDS011;59407;42.682;23.322;2023-04-03T05:54:00;21.58;;;12.63;;
71570;SDS011;59407;42.682;23.322;2023-04-03T05:56:32;26.00;;;11.77;;
71570;SDS011;59407;42.682;23.322;2023-04-03T05:59:00;18.83;;;10.95;;
71570;SDS011;59407;42.682;23.322;2023-04-03T06:01:26;17.95;;;11.27;;
71570;SDS011;59407;42.682;23.322;2023-04-03T06:03:54;24.63;;;11.77;;
71570;SDS011;59407;42.682;23.322;2023-04-03T06:06:23;21.77;;;13.10;;
71570;SDS011;59407;42.682;23.322;2023-04-03T06:08:51;30.17;;;13.57;;
71570;SDS011;59407;42.682;23.322;2023-04-03T06:11:22;24.52;;;13.38;;
71570;SDS011;59407;42.682;23.322;2023-04-03T06:13:50;23.67;;;12.65;;
71570;SDS011;59407;42.682;23.322;2023-04-03T06:16:15;28.15;;;15.05;;
71570;SDS011;59407;42.682;23.322;2023-04-03T06:18:42;20.87;;;13.07;;
71570;SDS011;59407;42.682;23.322;2023-04-03T06:21:08;22.45;;;11.70;;
71570;SDS011;59407;42.682;23.322;2023-04-03T06:23:33;20.00;;;11.27;;
71570;SDS011;59407;42.682;23.322;2023-04-03T06:25:59;26.30;;;10.73;;
71570;SDS011;59407;42.682;23.322;2023-04-03T06:28:25;14.70;;;9.43;;
71570;SDS011;59407;42.682;23.322;2023-04-03T06:30:53;17.10;;;9.13;;
71570;SDS011;59407;42.682;23.322;2023-04-03T06:33:19;15.60;;;9.20;;
71570;SDS011;59407;42.682;23.322;2023-04-03T06:35:45;15.77;;;10.23;;
71570;SDS011;59407;42.682;23.322;2023-04-03T06:38:11;13.60;;;9.97;;
71570;SDS011;59407;42.682;23.322;2023-04-03T06:40:37;15.13;;;10.23;;
71570;SDS011;59407;42.682;23.322;2023-04-03T06:43:05;16.13;;;9.70;;
71570;SDS011;59407;42.682;23.322;2023-04-03T06:45:30;18.50;;;10.90;;
71570;SDS011;59407;42.682;23.322;2023-04-03T06:47:57;25.10;;;13.93;;
71570;SDS011;59407;42.682;23.322;2023-04-03T06:50:23;20.17;;;12.73;;
71570;SDS011;59407;42.682;23.322;2023-04-03T06:52:51;28.60;;;14.25;;
71570;SDS011;59407;42.682;23.322;2023-04-03T06:55:17;23.27;;;13.53;;
71570;SDS011;59407;42.682;23.322;2023-04-03T06:57:43;21.90;;;13.38;;
71570;SDS011;59407;42.682;23.322;2023-04-03T07:00:10;16.33;;;12.33;;
71570;SDS011;59407;42.682;23.322;2023-04-03T07:02:37;18.83;;;12.30;;
71570;SDS011;59407;42.682;23.322;2023-04-03T07:05:02;17.85;;;11.18;;
71570;SDS011;59407;42.682;23.322;2023-04-03T07:07:28;16.87;;;11.50;;
71570;SDS011;59407;42.682;23.322;2023-04-03T07:09:55;20.88;;;11.10;;
71570;SDS011;59407;42.682;23.322;2023-04-03T07:12:21;20.20;;;10.30;;
71570;SDS011;59407;42.682;23.322;2023-04-03T07:14:47;17.30;;;8.05;;
71570;SDS011;59407;42.682;23.322;2023-04-03T07:17:13;15.90;;;9.52;;
71570;SDS011;59407;42.682;23.322;2023-04-03T07:19:39;16.25;;;10.02;;
71570;SDS011;59407;42.682;23.322;2023-04-03T07:22:05;16.92;;;9.30;;
71570;SDS011;59407;42.682;23.322;2023-04-03T07:24:32;22.27;;;10.87;;
71570;SDS011;59407;42.682;23.322;2023-04-03T07:26:58;19.90;;;9.40;;
71570;SDS011;59407;42.682;23.322;2023-04-03T07:29:23;13.30;;;7.27;;
71570;SDS011;59407;42.682;23.322;2023-04-03T07:31:49;11.43;;;7.40;;
71570;SDS011;59407;42.682;23.322;2023-04-03T07:34:15;14.50;;;7.37;;
71570;SDS011;59407;42.682;23.322;2023-04-03T07:36:41;11.55;;;7.15;;
71570;SDS011;59407;42.682;23.322;2023-04-03T07:39:07;46.25;;;24.25;;
71570;SDS011;59407;42.682;23.322;2023-04-03T07:41:33;15.10;;;10.03;;
71570;SDS011;59407;42.682;23.322;2023-04-03T07:43:59;14.20;;;8.65;;
71570;SDS011;59407;42.682;23.322;2023-04-03T07:46:25;13.30;;;8.05;;
71570;SDS011;59407;42.682;23.322;2023-04-03T07:48:53;16.10;;;8.70;;
71570;SDS011;59407;42.682;23.322;2023-04-03T07:51:18;22.03;;;12.50;;
71570;SDS011;59407;42.682;23.322;2023-04-03T07:53:44;15.57;;;8.40;;
71570;SDS011;59407;42.682;23.322;2023-04-03T07:56:11;12.73;;;8.30;;
71570;SDS011;59407;42.682;23.322;2023-04-03T07:58:37;17.67;;;10.85;;
71570;SDS011;59407;42.682;23.322;2023-04-03T08:01:04;17.60;;;11.70;;
71570;SDS011;59407;42.682;23.322;2023-04-03T08:03:31;18.27;;;11.10;;
71570;SDS011;59407;42.682;23.322;2023-04-03T08:06:00;17.42;;;10.85;;
71570;SDS011;59407;42.682;23.322;2023-04-03T08:08:28;19.57;;;10.73;;
71570;SDS011;59407;42.682;23.322;2023-04-03T08:10:57;23.65;;;11.25;;
71570;SDS011;59407;42.682;23.322;2023-04-03T08:13:24;16.80;;;10.85;;
71570;SDS011;59407;42.682;23.322;2023-04-03T08:15:49;19.60;;;11.37;;
71570;SDS011;59407;42.682;23.322;2023-04-03T08:18:15;18.63;;;11.90;;
71570;SDS011;59407;42.682;23.322;2023-04-03T08:20:41;17.40;;;11.35;;
71570;SDS011;59407;42.682;23.322;2023-04-03T08:23:07;18.70;;;11.57;;
71570;SDS011;59407;42.682;23.322;2023-04-03T08:25:33;22.98;;;13.38;;
71570;SDS011;59407;42.682;23.322;2023-04-03T08:28:02;20.27;;;11.55;;
71570;SDS011;59407;42.682;23.322;2023-04-03T08:30:27;19.70;;;11.20;;
71570;SDS011;59407;42.682;23.322;2023-04-03T08:32:53;23.33;;;12.93;;
71570;SDS011;59407;42.682;23.322;2023-04-03T08:35:18;21.07;;;12.03;;
71570;SDS011;59407;42.682;23.322;2023-04-03T08:37:45;28.50;;;12.50;;
71570;SDS011;59407;42.682;23.322;2023-04-03T08:40:15;22.33;;;13.07;;
71570;SDS011;59407;42.682;23.322;2023-04-03T08:42:45;22.95;;;12.82;;
71570;SDS011;59407;42.682;23.322;2023-04-03T08:48:19;24.92;;;15.98;;
71570;SDS011;59407;42.682;23.322;2023-04-03T08:50:59;25.38;;;17.00;;
71570;SDS011;59407;42.682;23.322;2023-04-03T08:53:30;25.35;;;16.80;;
71570;SDS011;59407;42.682;23.322;2023-04-03T08:55:59;25.35;;;16.95;;
71570;SDS011;59407;42.682;23.322;2023-04-03T08:58:29;27.20;;;16.50;;
71570;SDS011;59407;42.682;23.322;2023-04-03T09:03:55;23.10;;;15.30;;
71570;SDS011;59407;42.682;23.322;2023-04-03T09:06:23;22.52;;;13.15;;
71570;SDS011;59407;42.682;23.322;2023-04-03T09:11:24;20.93;;;13.23;;
71570;SDS011;59407;42.682;23.322;2023-04-03T09:22:28;18.65;;;11.90;;
71570;SDS011;59407;42.682;23.322;2023-04-03T09:27:28;17.45;;;11.63;;
71570;SDS011;59407;42.682;23.322;2023-04-03T09:29:56;22.17;;;11.60;;
71570;SDS011;59407;42.682;23.322;2023-04-03T09:32:26;17.35;;;11.65;;
71570;SDS011;59407;42.682;23.322;2023-04-03T09:34:57;16.33;;;10.45;;
71570;SDS011;59407;42.682;23.322;2023-04-03T09:40:11;16.23;;;11.65;;
71570;SDS011;59407;42.682;23.322;2023-04-03T09:45:54;18.58;;;10.25;;
71570;SDS011;59407;42.682;23.322;2023-04-03T09:48:22;16.13;;;10.75;;
71570;SDS011;59407;42.682;23.322;2023-04-03T09:56:04;17.00;;;11.70;;
71570;SDS011;59407;42.682;23.322;2023-04-03T09:59:05;19.03;;;11.10;;
71570;SDS011;59407;42.682;23.322;2023-04-03T10:01:39;15.75;;;10.15;;
71570;SDS011;59407;42.682;23.322;2023-04-03T10:04:09;16.92;;;10.65;;
71570;SDS011;59407;42.682;23.322;2023-04-03T10:06:39;18.02;;;10.77;;
71570;SDS011;59407;42.682;23.322;2023-04-03T10:09:28;13.02;;;8.50;;
71570;SDS011;59407;42.682;23.322;2023-04-03T10:15:02;14.45;;;7.60;;
71570;SDS011;59407;42.682;23.322;2023-04-03T10:18:00;14.77;;;8.70;;
71570;SDS011;59407;42.682;23.322;2023-04-03T10:20:43;17.17;;;9.88;;
71570;SDS011;59407;42.682;23.322;2023-04-03T10:23:21;20.13;;;11.70;;
71570;SDS011;59407;42.682;23.322;2023-04-03T10:28:56;15.10;;;9.25;;
71570;SDS011;59407;42.682;23.322;2023-04-03T10:31:37;14.65;;;7.97;;
71570;SDS011;59407;42.682;23.322;2023-04-03T10:34:28;16.45;;;7.88;;
71570;SDS011;59407;42.682;23.322;2023-04-03T10:40:01;14.00;;;8.23;;
71570;SDS011;59407;42.682;23.322;2023-04-03T10:42:50;14.52;;;7.57;;
71570;SDS011;59407;42.682;23.322;2023-04-03T10:45:24;12.00;;;8.23;;
71570;SDS011;59407;42.682;23.322;2023-04-03T10:47:55;11.90;;;6.90;;
71570;SDS011;59407;42.682;23.322;2023-04-03T10:58:50;12.07;;;5.22;;
71570;SDS011;59407;42.682;23.322;2023-04-03T11:01:26;8.15;;;4.55;;
71570;SDS011;59407;42.682;23.322;2023-04-03T11:16:25;6.40;;;3.80;;
71570;SDS011;59407;42.682;23.322;2023-04-03T11:18:54;7.28;;;3.83;;
71570;SDS011;59407;42.682;23.322;2023-04-03T11:24:53;5.72;;;3.90;;
71570;SDS011;59407;42.682;23.322;2023-04-03T11:27:55;8.48;;;3.72;;
71570;SDS011;59407;42.682;23.322;2023-04-03T11:30:33;6.80;;;5.65;;
71570;SDS011;59407;42.682;23.322;2023-04-03T11:36:34;10.23;;;4.93;;
71570;SDS011;59407;42.682;23.322;2023-04-03T11:39:24;7.57;;;3.22;;
71570;SDS011;59407;42.682;23.322;2023-04-03T11:53:45;12.55;;;5.95;;
71570;SDS011;59407;42.682;23.322;2023-04-03T12:04:18;9.02;;;5.00;;
71570;SDS011;59407;42.682;23.322;2023-04-03T12:12:00;4.68;;;2.90;;
71570;SDS011;59407;42.682;23.322;2023-04-03T12:14:27;5.33;;;3.30;;
71570;SDS011;59407;42.682;23.322;2023-04-03T12:16:55;5.22;;;3.35;;
71570;SDS011;59407;42.682;23.322;2023-04-03T12:19:38;6.82;;;3.47;;
71570;SDS011;59407;42.682;23.322;2023-04-03T12:22:17;5.15;;;3.70;;
71570;SDS011;59407;42.682;23.322;2023-04-03T12:24:47;5.75;;;3.58;;
71570;SDS011;59407;42.682;23.322;2023-04-03T12:35:29;7.55;;;3.45;;
71570;SDS011;59407;42.682;23.322;2023-04-03T12:41:21;5.70;;;4.30;;
71570;SDS011;59407;42.682;23.322;2023-04-03T12:46:33;7.43;;;4.40;;
71570;SDS011;59407;42.682;23.322;2023-04-03T12:49:05;5.68;;;4.47;;
71570;SDS011;59407;42.682;23.322;2023-04-03T12:51:41;11.05;;;6.03;;
71570;SDS011;59407;42.682;23.322;2023-04-03T12:54:29;9.30;;;5.80;;
71570;SDS011;59407;42.682;23.322;2023-04-03T12:59:46;8.27;;;5.15;;
71570;SDS011;59407;42.682;23.322;2023-04-03T13:04:55;8.65;;;5.68;;
71570;SDS011;59407;42.682;23.322;2023-04-03T13:07:29;8.20;;;5.47;;
71570;SDS011;59407;42.682;23.322;2023-04-03T13:12:33;11.10;;;6.63;;
71570;SDS011;59407;42.682;23.322;2023-04-03T13:15:19;7.50;;;6.03;;
71570;SDS011;59407;42.682;23.322;2023-04-03T13:17:47;8.38;;;5.95;;
71570;SDS011;59407;42.682;23.322;2023-04-03T13:25:25;10.23;;;7.60;;
71570;SDS011;59407;42.682;23.322;2023-04-03T13:27:54;10.05;;;7.00;;
71570;SDS011;59407;42.682;23.322;2023-04-03T13:30:24;10.95;;;7.85;;
71570;SDS011;59407;42.682;23.322;2023-04-03T13:32:56;10.10;;;7.53;;
71570;SDS011;59407;42.682;23.322;2023-04-03T13:38:03;13.82;;;9.02;;
71570;SDS011;59407;42.682;23.322;2023-04-03T13:40:53;13.93;;;9.10;;
71570;SDS011;59407;42.682;23.322;2023-04-03T13:43:21;11.40;;;8.15;;
71570;SDS011;59407;42.682;23.322;2023-04-03T13:46:20;11.67;;;8.00;;
71570;SDS011;59407;42.682;23.322;2023-04-03T13:48:53;9.68;;;7.30;;
71570;SDS011;59407;42.682;23.322;2023-04-03T13:51:29;10.73;;;7.82;;
71570;SDS011;59407;42.682;23.322;2023-04-03T13:53:57;11.85;;;8.00;;
71570;SDS011;59407;42.682;23.322;2023-04-03T13:56:34;10.80;;;8.40;;
71570;SDS011;59407;42.682;23.322;2023-04-03T14:01:47;10.52;;;8.52;;
71570;SDS011;59407;42.682;23.322;2023-04-03T14:04:22;10.80;;;7.78;;
71570;SDS011;59407;42.682;23.322;2023-04-03T14:06:54;11.50;;;8.38;;
71570;SDS011;59407;42.682;23.322;2023-04-03T14:09:22;10.60;;;8.43;;
71570;SDS011;59407;42.682;23.322;2023-04-03T14:11:49;10.87;;;8.53;;
71570;SDS011;59407;42.682;23.322;2023-04-03T14:14:23;10.70;;;7.85;;
71570;SDS011;59407;42.682;23.322;2023-04-03T14:16:53;11.05;;;7.43;;
71570;SDS011;59407;42.682;23.322;2023-04-03T14:19:22;11.93;;;8.20;;
71570;SDS011;59407;42.682;23.322;2023-04-03T14:21:49;10.13;;;7.78;;
71570;SDS011;59407;42.682;23.322;2023-04-03T14:24:22;10.27;;;7.00;;
71570;SDS011;59407;42.682;23.322;2023-04-03T14:26:48;11.15;;;7.35;;
71570;SDS011;59407;42.682;23.322;2023-04-03T14:29:15;13.82;;;7.65;;
71570;SDS011;59407;42.682;23.322;2023-04-03T14:31:42;11.13;;;7.70;;
71570;SDS011;59407;42.682;23.322;2023-04-03T14:34:09;12.45;;;7.78;;
71570;SDS011;59407;42.682;23.322;2023-04-03T14:36:37;10.50;;;7.83;;
71570;SDS011;59407;42.682;23.322;2023-04-03T14:39:05;8.80;;;7.20;;
71570;SDS011;59407;42.682;23.322;2023-04-03T14:41:32;8.65;;;7.10;;
71570;SDS011;59407;42.682;23.322;2023-04-03T14:43:58;9.93;;;6.65;;
71570;SDS011;59407;42.682;23.322;2023-04-03T14:46:32;8.82;;;6.90;;
71570;SDS011;59407;42.682;23.322;2023-04-03T14:49:01;9.13;;;6.90;;
71570;SDS011;59407;42.682;23.322;2023-04-03T14:51:27;8.73;;;7.25;;
71570;SDS011;59407;42.682;23.322;2023-04-03T14:53:53;13.07;;;9.45;;
71570;SDS011;59407;42.682;23.322;2023-04-03T14:56:23;15.10;;;9.65;;
71570;SDS011;59407;42.682;23.322;2023-04-03T14:58:52;15.97;;;11.33;;
71570;SDS011;59407;42.682;23.322;2023-04-03T15:01:20;11.90;;;7.82;;
71570;SDS011;59407;42.682;23.322;2023-04-03T15:03:46;14.05;;;7.50;;
71570;SDS011;59407;42.682;23.322;2023-04-03T15:06:13;14.80;;;9.85;;
71570;SDS011;59407;42.682;23.322;2023-04-03T15:08:39;11.67;;;7.80;;
71570;SDS011;59407;42.682;23.322;2023-04-03T15:11:06;7.72;;;6.05;;
71570;SDS011;59407;42.682;23.322;2023-04-03T15:13:32;9.48;;;6.70;;
71570;SDS011;59407;42.682;23.322;2023-04-03T15:15:57;9.50;;;5.90;;
71570;SDS011;59407;42.682;23.322;2023-04-03T15:18:24;6.63;;;5.03;;
71570;SDS011;59407;42.682;23.322;2023-04-03T15:20:51;7.25;;;5.05;;
71570;SDS011;59407;42.682;23.322;2023-04-03T15:23:17;5.80;;;4.85;;
71570;SDS011;59407;42.682;23.322;2023-04-03T15:25:43;5.60;;;4.20;;
71570;SDS011;59407;42.682;23.322;2023-04-03T15:28:13;7.70;;;4.78;;
71570;SDS011;59407;42.682;23.322;2023-04-03T15:30:45;6.83;;;4.27;;
71570;SDS011;59407;42.682;23.322;2023-04-03T15:33:12;7.15;;;4.75;;
71570;SDS011;59407;42.682;23.322;2023-04-03T15:35:40;6.22;;;5.03;;
71570;SDS011;59407;42.682;23.322;2023-04-03T15:38:06;31.63;;;17.15;;
71570;SDS011;59407;42.682;23.322;2023-04-03T15:40:32;16.60;;;9.63;;
71570;SDS011;59407;42.682;23.322;2023-04-03T15:42:58;6.75;;;5.45;;
71570;SDS011;59407;42.682;23.322;2023-04-03T15:45:23;9.17;;;6.87;;
71570;SDS011;59407;42.682;23.322;2023-04-03T15:47:50;7.90;;;6.70;;
71570;SDS011;59407;42.682;23.322;2023-04-03T15:50:16;11.10;;;5.97;;
71570;SDS011;59407;42.682;23.322;2023-04-03T15:52:41;9.43;;;6.25;;
71570;SDS011;59407;42.682;23.322;2023-04-03T15:55:07;7.43;;;6.47;;
71570;SDS011;59407;42.682;23.322;2023-04-03T15:57:34;7.28;;;6.28;;
71570;SDS011;59407;42.682;23.322;2023-04-03T16:00:02;9.93;;;5.85;;
71570;SDS011;59407;42.682;23.322;2023-04-03T16:02:30;7.78;;;5.60;;
71570;SDS011;59407;42.682;23.322;2023-04-03T16:04:56;8.63;;;5.50;;
71570;SDS011;59407;42.682;23.322;2023-04-03T16:07:23;7.10;;;6.17;;
71570;SDS011;59407;42.682;23.322;2023-04-03T16:09:48;7.60;;;5.90;;
71570;SDS011;59407;42.682;23.322;2023-04-03T16:12:14;9.70;;;6.50;;
71570;SDS011;59407;42.682;23.322;2023-04-03T16:14:39;11.33;;;7.97;;
71570;SDS011;59407;42.682;23.322;2023-04-03T16:17:05;8.93;;;6.80;;
71570;SDS011;59407;42.682;23.322;2023-04-03T16:19:30;8.57;;;6.65;;
71570;SDS011;59407;42.682;23.322;2023-04-03T16:21:56;8.50;;;6.60;;
71570;SDS011;59407;42.682;23.322;2023-04-03T16:24:21;10.02;;;7.22;;
71570;SDS011;59407;42.682;23.322;2023-04-03T16:26:48;8.40;;;7.03;;
71570;SDS011;59407;42.682;23.322;2023-04-03T16:29:13;8.77;;;6.95;;
71570;SDS011;59407;42.682;23.322;2023-04-03T16:31:39;9.30;;;7.43;;
71570;SDS011;59407;42.682;23.322;2023-04-03T16:34:04;9.20;;;7.27;;
71570;SDS011;59407;42.682;23.322;2023-04-03T16:36:31;10.13;;;7.50;;
71570;SDS011;59407;42.682;23.322;2023-04-03T16:38:57;9.63;;;6.80;;
71570;SDS011;59407;42.682;23.322;2023-04-03T16:41:22;10.67;;;8.57;;
71570;SDS011;59407;42.682;23.322;2023-04-03T16:43:48;10.83;;;8.13;;
71570;SDS011;59407;42.682;23.322;2023-04-03T16:46:14;11.77;;;8.20;;
71570;SDS011;59407;42.682;23.322;2023-04-03T16:48:40;15.27;;;9.37;;
71570;SDS011;59407;42.682;23.322;2023-04-03T16:51:05;12.57;;;8.93;;
71570;SDS011;59407;42.682;23.322;2023-04-03T16:53:31;12.48;;;9.05;;
71570;SDS011;59407;42.682;23.322;2023-04-03T16:55:57;16.67;;;10.97;;
71570;SDS011;59407;42.682;23.322;2023-04-03T16:58:23;12.00;;;9.00;;
71570;SDS011;59407;42.682;23.322;2023-04-03T17:00:48;10.13;;;6.93;;
71570;SDS011;59407;42.682;23.322;2023-04-03T17:03:14;9.48;;;7.10;;
71570;SDS011;59407;42.682;23.322;2023-04-03T17:05:40;10.57;;;7.20;;
71570;SDS011;59407;42.682;23.322;2023-04-03T17:08:05;10.37;;;6.87;;
71570;SDS011;59407;42.682;23.322;2023-04-03T17:10:31;9.20;;;6.32;;
71570;SDS011;59407;42.682;23.322;2023-04-03T17:12:58;11.35;;;6.40;;
71570;SDS011;59407;42.682;23.322;2023-04-03T17:15:24;7.60;;;5.60;;
71570;SDS011;59407;42.682;23.322;2023-04-03T17:17:50;8.98;;;5.68;;
71570;SDS011;59407;42.682;23.322;2023-04-03T17:20:32;11.00;;;6.50;;
71570;SDS011;59407;42.682;23.322;2023-04-03T17:37:56;7.40;;;4.60;;
71570;SDS011;59407;42.682;23.322;2023-04-03T17:40:22;7.13;;;4.15;;
71570;SDS011;59407;42.682;23.322;2023-04-03T17:42:47;6.47;;;4.67;;
71570;SDS011;59407;42.682;23.322;2023-04-03T17:45:19;7.03;;;4.80;;
71570;SDS011;59407;42.682;23.322;2023-04-03T17:47:45;10.27;;;6.60;;
71570;SDS011;59407;42.682;23.322;2023-04-03T17:50:10;9.30;;;5.33;;